createdAt,value
2023-01-17T00:04:29.071Z,84.85
2023-01-17T00:09:45.618Z,84.89
2023-01-17T00:14:45.746Z,84.92
2023-01-17T00:20:01.908Z,84.94
2023-01-17T00:25:18.906Z,85.00
2023-01-17T00:30:17.805Z,85.05
2023-01-17T00:35:16.711Z,85.14
2023-01-17T00:40:15.518Z,85.28
2023-01-17T00:45:33.777Z,85.39
2023-01-17T00:50:51.151Z,85.47
2023-01-17T00:56:08.104Z,85.60
2023-01-17T01:01:29.758Z,85.68
2023-01-17T01:06:46.165Z,85.70
2023-01-17T01:12:02.968Z,85.71
2023-01-17T01:17:19.811Z,85.74
2023-01-17T01:22:36.701Z,85.81
2023-01-17T01:27:52.907Z,85.88
2023-01-17T01:33:09.536Z,85.89
2023-01-17T01:38:09.373Z,85.93
2023-01-17T01:43:10.717Z,85.98
2023-01-17T01:48:25.809Z,86.00
2023-01-17T01:53:26.165Z,86.00
2023-01-17T01:58:29.960Z,86.00
2023-01-17T02:03:33.373Z,86.03
2023-01-17T02:08:36.848Z,86.08
2023-01-17T02:13:36.143Z,86.10
2023-01-17T02:18:48.164Z,86.10
2023-01-17T02:24:41.659Z,86.10
2023-01-17T02:30:25.732Z,86.11
2023-01-17T02:35:36.211Z,86.11
2023-01-17T02:40:43.964Z,86.18
2023-01-17T02:45:44.386Z,86.21
2023-01-17T02:51:12.465Z,86.20
2023-01-17T02:56:32.793Z,86.15
2023-01-17T03:01:44.943Z,86.13
2023-01-17T03:06:53.852Z,86.10
2023-01-17T03:11:53.486Z,86.10
2023-01-17T03:16:53.919Z,86.11
2023-01-17T03:21:54.243Z,86.06
2023-01-17T03:26:53.401Z,86.00
2023-01-17T03:31:53.020Z,85.95
2023-01-17T03:36:52.306Z,85.99
2023-01-17T03:41:51.490Z,85.99
2023-01-17T03:46:51.346Z,85.92
2023-01-17T03:51:51.072Z,85.90
2023-01-17T03:56:52.433Z,85.89
2023-01-17T04:01:51.698Z,85.86
2023-01-17T04:06:51.903Z,85.85
2023-01-17T04:11:53.531Z,85.90
2023-01-17T04:16:54.800Z,85.90
2023-01-17T04:21:54.049Z,85.90
2023-01-17T04:26:54.192Z,85.91
2023-01-17T04:31:53.536Z,85.83
2023-01-17T04:36:53.271Z,85.80
2023-01-17T04:41:53.608Z,85.80
2023-01-17T04:46:52.457Z,85.74
2023-01-17T04:51:52.121Z,85.69
2023-01-17T04:56:51.871Z,85.68
2023-01-17T05:01:52.556Z,85.67
2023-01-17T05:06:51.344Z,85.64
2023-01-17T05:11:50.745Z,85.61
2023-01-17T05:16:49.759Z,85.56
2023-01-17T05:21:49.202Z,85.55
2023-01-17T05:26:55.012Z,85.50
2023-01-17T05:31:54.285Z,85.42
2023-01-17T05:36:53.388Z,85.33
2023-01-17T05:41:52.487Z,85.28
2023-01-17T05:46:51.191Z,85.13
2023-01-17T05:51:50.459Z,85.11
2023-01-17T05:56:50.318Z,85.14
2023-01-17T06:01:51.599Z,85.15
2023-01-17T06:06:52.270Z,85.11
2023-01-17T06:11:52.338Z,85.10
2023-01-17T06:16:51.322Z,85.10
2023-01-17T06:21:51.024Z,85.02
2023-01-17T06:26:50.245Z,84.96
2023-01-17T06:31:49.651Z,85.01
2023-01-17T06:36:49.285Z,85.03
2023-01-17T06:41:48.757Z,85.07
2023-01-17T06:46:48.900Z,85.14
2023-01-17T06:51:48.383Z,85.15
2023-01-17T06:56:47.525Z,85.16
2023-01-17T07:01:46.952Z,85.28
2023-01-17T07:06:46.546Z,85.52
2023-01-17T07:11:46.221Z,85.58
2023-01-17T07:16:47.125Z,85.64
2023-01-17T07:21:46.274Z,85.74
2023-01-17T07:26:45.008Z,85.79
2023-01-17T07:31:44.176Z,85.84
2023-01-17T07:36:43.821Z,85.90
2023-01-17T07:41:43.028Z,85.93
2023-01-17T07:46:42.478Z,85.93
2023-01-17T07:51:42.325Z,85.90
2023-01-17T07:56:45.777Z,85.96
2023-01-17T08:01:44.785Z,85.89
2023-01-17T08:06:49.049Z,85.69
2023-01-17T08:11:48.145Z,85.43
2023-01-17T08:16:47.836Z,85.21
2023-01-17T08:21:47.124Z,84.90
2023-01-17T08:26:45.897Z,84.57
2023-01-17T08:31:45.121Z,84.29
2023-01-17T08:36:44.941Z,84.01
2023-01-17T08:41:44.178Z,83.57
2023-01-17T08:46:44.398Z,83.49
2023-01-17T08:51:42.957Z,83.11
2023-01-17T08:56:42.968Z,82.63
2023-01-17T09:01:42.434Z,82.65
2023-01-17T09:06:45.657Z,82.07
2023-01-17T09:11:45.257Z,81.86
2023-01-17T09:16:47.058Z,81.13
2023-01-17T09:21:46.792Z,80.85
2023-01-17T09:26:46.307Z,81.07
2023-01-17T09:31:47.333Z,81.09
2023-01-17T09:36:46.494Z,80.64
2023-01-17T09:41:54.226Z,80.25
2023-01-17T09:46:58.038Z,79.69
2023-01-17T09:51:58.861Z,79.57
2023-01-17T09:57:06.061Z,79.31
2023-01-17T10:02:47.107Z,78.93
2023-01-17T10:08:04.681Z,78.72
2023-01-17T10:13:17.210Z,78.63
2023-01-17T10:18:51.201Z,78.75
2023-01-17T10:24:25.814Z,78.51
2023-01-17T10:29:30.188Z,78.39
2023-01-17T10:34:38.509Z,78.31
2023-01-17T10:39:39.455Z,78.17
2023-01-17T10:44:50.722Z,77.92
2023-01-17T10:49:53.812Z,77.85
2023-01-17T10:55:19.299Z,77.99
2023-01-17T11:00:50.076Z,77.50
2023-01-17T11:06:09.515Z,77.05
2023-01-17T11:11:12.439Z,76.81
2023-01-17T11:16:22.906Z,76.72
2023-01-17T11:21:25.433Z,76.76
2023-01-17T11:26:31.995Z,76.95
2023-01-17T11:31:32.019Z,76.82
2023-01-17T11:36:34.198Z,76.68
2023-01-17T11:41:40.213Z,76.68
2023-01-17T11:46:39.650Z,76.32
2023-01-17T11:51:44.444Z,76.39
2023-01-17T11:56:46.547Z,76.64
2023-01-17T12:01:58.099Z,76.72
2023-01-17T12:07:26.399Z,76.75
2023-01-17T12:13:01.687Z,76.35
2023-01-17T12:18:33.676Z,76.01
2023-01-17T12:24:19.453Z,75.80
2023-01-17T12:30:01.452Z,75.82
2023-01-17T12:35:11.357Z,75.61
2023-01-17T12:40:25.178Z,75.63
2023-01-17T12:45:33.160Z,75.83
2023-01-17T12:50:39.432Z,75.71
2023-01-17T12:55:52.819Z,75.89
2023-01-17T13:01:01.768Z,75.82
2023-01-17T13:06:05.275Z,75.94
2023-01-17T13:11:12.830Z,75.96
2023-01-17T13:16:21.078Z,75.72
2023-01-17T13:21:35.785Z,75.71
2023-01-17T13:26:58.719Z,75.68
2023-01-17T13:32:28.849Z,75.87
2023-01-17T13:38:05.257Z,74.64
2023-01-17T13:43:13.851Z,74.15
2023-01-17T13:48:40.904Z,72.22
2023-01-17T13:54:00.919Z,70.47
2023-01-17T13:59:22.585Z,69.07
2023-01-17T14:04:23.080Z,68.22
2023-01-17T14:09:44.093Z,68.00
2023-01-17T14:14:55.809Z,67.56
2023-01-17T14:20:00.523Z,67.46
2023-01-17T14:25:17.556Z,67.69
2023-01-17T14:30:28.750Z,68.00
2023-01-17T14:35:34.122Z,68.36
2023-01-17T14:40:39.194Z,68.90
2023-01-17T14:45:40.171Z,69.37
2023-01-17T14:50:45.161Z,69.96
2023-01-17T14:55:57.305Z,70.72
2023-01-17T15:01:05.922Z,71.50
2023-01-17T15:06:17.285Z,72.26
2023-01-17T15:11:25.854Z,72.93
2023-01-17T15:16:33.900Z,73.53
2023-01-17T15:21:37.326Z,74.11
2023-01-17T15:26:45.443Z,74.64
2023-01-17T15:31:49.356Z,75.05
2023-01-17T15:36:57.583Z,75.42
2023-01-17T15:42:00.369Z,75.82
2023-01-17T15:47:00.157Z,76.33
2023-01-17T15:52:15.908Z,76.76
2023-01-17T15:57:36.959Z,77.05
2023-01-17T16:02:55.601Z,77.33
2023-01-17T16:07:56.951Z,77.63
2023-01-17T16:12:57.668Z,77.95
2023-01-17T16:43:11.551Z,79.75
2023-01-17T16:55:16.821Z,80.31
2023-01-17T17:00:19.307Z,80.49
2023-01-17T17:05:18.938Z,80.63
2023-01-17T17:10:22.275Z,80.75
2023-01-17T17:15:22.011Z,80.89
2023-01-17T17:20:24.515Z,80.96
2023-01-17T17:25:25.136Z,81.06
2023-01-17T17:30:25.262Z,81.17
2023-01-17T17:35:25.092Z,81.29
2023-01-17T17:40:24.847Z,81.42
2023-01-17T17:45:24.710Z,81.59
2023-01-17T17:50:25.847Z,81.75
2023-01-17T17:55:26.095Z,81.83
2023-01-17T18:00:27.809Z,81.91
2023-01-17T18:05:28.815Z,82.03
2023-01-17T18:10:28.404Z,82.13
2023-01-17T18:15:27.357Z,82.19
2023-01-17T18:20:27.023Z,82.28
2023-01-17T18:25:26.095Z,82.35
2023-01-17T18:30:25.792Z,82.43
2023-01-17T18:35:24.683Z,82.53
2023-01-17T18:40:24.670Z,82.60
2023-01-17T18:45:24.592Z,82.71
2023-01-17T18:50:24.114Z,82.89
2023-01-17T18:55:23.508Z,83.01
2023-01-17T19:00:25.393Z,83.13
2023-01-17T19:05:24.898Z,83.20
2023-01-17T19:10:26.174Z,83.25
2023-01-17T19:15:25.659Z,83.39
2023-01-17T19:20:25.260Z,83.49
2023-01-17T19:25:25.796Z,83.65
2023-01-17T19:30:26.920Z,83.74
2023-01-17T19:35:31.053Z,83.86
2023-01-17T19:40:30.919Z,84.04
2023-01-17T19:45:30.789Z,84.18
2023-01-17T19:50:30.114Z,84.31
2023-01-17T19:55:28.716Z,84.41
2023-01-17T20:00:30.358Z,84.47
2023-01-17T20:05:32.489Z,84.58
2023-01-17T20:10:56.983Z,84.71
2023-01-17T20:16:15.518Z,84.80
2023-01-17T20:21:18.950Z,84.90
2023-01-17T20:26:25.601Z,85.04
2023-01-17T20:31:27.700Z,85.14
2023-01-17T20:36:29.122Z,85.20
2023-01-17T20:41:33.037Z,85.24
2023-01-17T20:46:36.628Z,85.29
2023-01-17T20:51:38.726Z,85.26
2023-01-17T20:56:39.709Z,85.29
2023-01-17T21:01:39.489Z,85.28
2023-01-17T21:06:40.581Z,85.21
2023-01-17T21:11:40.676Z,85.20
2023-01-17T21:16:40.937Z,85.20
2023-01-17T21:21:40.553Z,85.20
2023-01-17T21:26:43.074Z,85.24
2023-01-17T21:31:43.200Z,85.32
2023-01-17T21:36:45.061Z,85.34
2023-01-17T21:41:46.882Z,85.39
2023-01-17T21:46:46.313Z,85.40
2023-01-17T21:52:04.378Z,85.40
2023-01-17T21:57:21.205Z,85.47
2023-01-17T22:02:20.977Z,85.54
2023-01-17T22:07:20.380Z,85.64
2023-01-17T22:12:20.038Z,85.72
2023-01-17T22:17:21.823Z,85.80
2023-01-17T22:22:22.777Z,85.84
2023-01-17T22:27:24.333Z,85.89
2023-01-17T22:32:24.191Z,85.90
2023-01-17T22:37:23.642Z,85.96
2023-01-17T22:42:25.228Z,85.96
2023-01-17T22:47:24.556Z,86.00
2023-01-17T22:52:23.695Z,86.00
2023-01-17T22:57:23.734Z,85.93
2023-01-17T23:02:23.132Z,85.89
2023-01-17T23:07:27.276Z,85.88
2023-01-17T23:12:27.381Z,85.90
2023-01-17T23:17:45.641Z,85.90
2023-01-17T23:22:44.725Z,85.90
2023-01-17T23:28:03.785Z,85.91
2023-01-17T23:33:07.096Z,85.91
2023-01-17T23:38:23.707Z,85.91
2023-01-17T23:43:26.857Z,85.97
2023-01-17T23:48:27.767Z,85.93
2023-01-17T23:53:28.700Z,85.93
2023-01-17T23:58:31.055Z,85.96
